Latest Weather Observations for Renmark Airport

IDS60801

Issued at 4:01 pm CST Tuesday 20 April 2021 (issued every 10 minutes, with the page automatically refreshed every 10 minutes)

About weather observations | Map of weather stations | Latest weather observations for SA | Other Formats
Station Details ID: 024048 Name: RENMARK AERO Lat: -34.20 Lon: 140.68 Height: 31.5 m
Data from the previous 72 hours. | See also: Recent months at Renmark Airport
Date/Time
CST
Temp
°C
App
Temp
°C
Dew
Point
°C
Rel
Hum
%
Delta-T
°C
Wind Press
QNH
hPa
Press
MSL
hPa
Rain since
9am
mm
Dir  Spd
km/h
Gust
km/h
Spd
kts
Gust
kts
20/04:00pm 17.5 12.2 6.7 49 5.4 S 24 33 13 18 1015.3 1015.3 0.0
20/03:30pm 17.4 11.9 7.5 52 5.0 SSW 26 37 14 20 1015.1 1015.1 0.0
20/03:00pm 16.7 11.7 9.4 62 3.8 SSW 26 37 14 20 1015.0 1015.0 0.0
20/02:30pm 17.0 12.5 9.9 63 3.7 SSW 24 35 13 19 1014.8 1014.8 0.0
20/02:00pm 16.2 10.4 9.6 65 3.4 SSW 30 46 16 25 1014.5 1014.5 0.0
20/01:48pm 16.4 10.9 10.5 68 3.1 SSW 30 48 16 26 1014.4 1014.4 0.0
20/01:39pm 16.7 10.8 11.2 70 3.0 SSW 33 44 18 24 1014.2 1014.2 0.0
20/01:30pm 17.9 12.3 11.5 66 3.5 SW 32 44 17 24 1013.9 1013.9 0.0
20/01:16pm 17.9 11.9 10.8 63 3.8 SW 33 52 18 28 1013.7 1013.7 0.0
20/01:00pm 18.5 12.7 9.6 56 4.7 WSW 30 43 16 23 1013.6 1013.6 0.0
20/12:35pm 20.5 14.7 7.8 44 6.6 WSW 28 46 15 25 1013.7 1013.7 0.0
20/12:30pm 20.2 13.9 7.2 43 6.6 WSW 30 44 16 24 1013.5 1013.5 0.0
20/12:00pm 21.5 14.4 6.6 38 7.6 W 33 46 18 25 1013.6 1013.6 0.0
20/11:30am 20.8 14.2 6.0 38 7.4 W 30 41 16 22 1013.8 1013.8 0.0
20/11:00am 20.8 14.3 6.4 39 7.3 W 30 43 16 23 1014.1 1014.1 0.0
20/10:30am 19.8 12.8 6.2 41 6.8 W 32 43 17 23 1014.3 1014.3 0.0
20/10:00am 19.5 13.3 6.3 42 6.6 W 28 39 15 21 1014.3 1014.3 0.0
20/09:30am 18.7 13.1 5.5 42 6.4 W 24 33 13 18 1014.0 1014.0 0.0
20/09:00am 16.5 11.1 4.5 45 5.6 W 22 30 12 16 1014.2 1014.2 0.0
20/08:30am 15.3 9.6 3.1 44 5.5 WNW 22 28 12 15 1014.4 1014.4 0.0
20/08:00am 13.5 8.3 2.4 47 4.9 WNW 19 24 10 13 1014.3 1014.3 0.0
20/07:30am 12.3 8.7 3.0 53 4.1 NNW 11 15 6 8 1014.0 1014.0 0.0
20/07:00am 10.5 7.0 3.3 61 3.1 NNW 11 17 6 9 1013.8 1013.8 0.0
20/06:30am 9.3 6.9 2.2 61 3.0 WSW 4 9 2 5 1013.9 1013.9 0.0
20/06:00am 8.7 6.4 2.5 65 2.6 W 4 6 2 3 1013.9 1013.9 0.0
20/05:30am 10.1 5.4 3.4 63 2.9 NNW 17 19 9 10 1013.8 1013.8 0.0
20/05:00am 8.3 4.3 3.0 69 2.2 NW 13 15 7 8 1014.0 1014.0 0.0
20/04:30am 9.8 6.0 4.0 67 2.6 WNW 13 19 7 10 1014.0 1014.0 0.0
20/04:00am 9.1 4.9 3.9 70 2.3 W 15 20 8 11 1014.2 1014.2 0.0
20/03:30am 6.2 2.7 1.3 71 2.0 W 9 11 5 6 1013.8 1013.8 0.0
20/03:00am 5.5 2.1 -0.5 65 2.3 W 7 9 4 5 1013.9 1013.9 0.0
20/02:30am 6.1 3.3 -0.2 64 2.4 W 4 6 2 3 1013.9 1013.9 0.0
20/02:00am 6.6 3.4 -0.8 59 2.8 WSW 6 48 3 26 1014.3 1014.3 0.0
20/01:30am 6.8 4.8 -0.2 61 2.7 CALM 0 0 0 0 1014.4 1014.4 0.0
20/01:00am 6.9 4.8 -0.5 59 2.8 CALM 0 0 0 0 1014.7 1014.7 0.0
20/12:30am 8.0 6.1 0.3 58 3.1 CALM 0 0 0 0 1014.9 1014.9 0.0
20/12:00am 8.2 6.5 1.6 63 2.7 CALM 0 0 0 0 1015.1 1015.1 0.0
 
Date/Time
CST
Temp
°C
App
Temp
°C
Dew
Point
°C
Rel
Hum
%
Delta-T
°C
Wind Press
QNH
hPa
Press
MSL
hPa
Rain since
9am
mm
Dir  Spd
km/h
Gust
km/h
Spd
kts
Gust
kts
19/11:30pm 9.6 7.8 1.3 56 3.4 CALM 0 0 0 0 1015.2 1015.2 0.0
19/11:00pm 10.0 7.9 1.4 55 3.6 WSW 2 6 1 3 1015.5 1015.4 0.0
19/10:30pm 10.9 8.1 2.2 55 3.7 WSW 6 7 3 4 1015.7 1015.6 0.0
19/10:00pm 11.4 8.6 2.9 56 3.7 WSW 7 9 4 5 1015.9 1015.8 0.0
19/09:30pm 10.0 7.0 0.6 52 3.8 W 6 15 3 8 1015.9 1015.8 0.0
19/09:00pm 11.4 9.7 1.6 51 4.1 CALM 0 0 0 0 1015.8 1015.7 0.0
19/08:30pm 10.9 7.0 1.2 51 4.0 SSW 11 13 6 7 1015.7 1015.6 0.0
19/08:00pm 12.4 10.5 0.8 45 4.9 CALM 0 0 0 0 1015.5 1015.4 0.0
19/07:30pm 13.5 11.5 2.1 46 5.0 ENE 2 7 1 4 1015.6 1015.5 0.0
19/07:00pm 13.8 11.7 1.5 43 5.3 ESE 2 6 1 3 1015.6 1015.5 0.0
19/06:30pm 16.2 14.6 2.6 40 6.1 CALM 0 0 0 0 1015.5 1015.4 0.0
19/06:00pm 18.5 16.0 3.6 37 7.0 SW 6 7 3 4 1015.2 1015.2 0.0
19/05:30pm 20.4 17.0 4.0 34 7.9 SW 11 15 6 8 1015.0 1015.0 0.0
19/05:00pm 21.4 17.6 4.0 32 8.4 WSW 13 20 7 11 1015.1 1015.1 0.0
19/04:30pm 21.8 17.7 4.4 32 8.5 WSW 15 22 8 12 1015.2 1015.2 0.0
19/04:00pm 21.8 17.3 4.4 32 8.5 SW 17 24 9 13 1015.3 1015.3 0.0
19/03:30pm 21.9 17.1 4.5 32 8.5 SW 19 30 10 16 1015.3 1015.3 0.0
19/03:00pm 21.6 16.5 4.2 32 8.5 WSW 20 30 11 16 1015.6 1015.5 0.0
19/02:30pm 22.6 18.1 4.2 30 9.0 WSW 17 20 9 11 1015.6 1015.5 0.0
19/02:00pm 21.4 16.6 4.5 33 8.3 WNW 19 33 10 18 1015.9 1015.8 0.0
19/01:30pm 21.2 15.8 4.7 34 8.1 NW 22 35 12 19 1016.5 1016.4 0.0
19/01:00pm 22.2 17.9 5.2 33 8.5 NW 17 26 9 14 1017.0 1016.9 0.0
19/12:30pm 20.8 17.0 5.6 37 7.5 NW 15 26 8 14 1017.6 1017.5 0.0
19/12:00pm 20.0 15.5 6.0 40 7.0 NW 19 24 10 13 1018.3 1018.2 0.0
19/11:30am 20.1 15.4 5.0 37 7.4 NW 19 35 10 19 1018.8 1018.7 0.0
19/11:00am 20.1 16.1 6.5 41 6.8 NNW 17 26 9 14 1019.3 1019.2 0.0
19/10:30am 19.4 15.3 6.2 42 6.6 N 17 24 9 13 1019.6 1019.5 0.0
19/10:00am 18.3 15.9 8.6 53 5.0 NW 11 17 6 9 1020.0 1019.9 0.0
19/09:30am 17.5 15.0 8.4 55 4.7 NW 11 15 6 8 1020.3 1020.2 0.0
19/09:00am 16.4 14.3 8.1 58 4.2 WNW 9 13 5 7 1020.6 1020.5 0.0
19/08:30am 14.4 11.3 7.2 62 3.5 WNW 13 19 7 10 1020.7 1020.6 0.0
19/08:00am 13.0 11.2 7.0 67 2.9 WSW 6 7 3 4 1020.4 1020.3 0.0
19/07:30am 11.4 10.6 6.3 71 2.4 CALM 0 0 0 0 1020.2 1020.1 0.0
19/07:00am 10.0 8.9 5.2 72 2.2 CALM 0 0 0 0 1020.2 1020.1 0.0
19/06:30am 9.5 8.3 4.5 71 2.2 CALM 0 0 0 0 1019.9 1019.8 0.0
19/06:00am 10.0 8.9 5.0 71 2.3 CALM 0 0 0 0 1019.9 1019.8 0.0
19/05:30am 9.8 8.6 4.6 70 2.3 CALM 0 0 0 0 1019.9 1019.8 0.0
19/05:00am 9.7 8.6 4.9 72 2.2 CALM 0 0 0 0 1019.9 1019.8 0.0
19/04:30am 10.3 8.2 5.7 73 2.1 NW 6 9 3 5 1019.8 1019.7 0.0
19/04:00am 10.4 9.4 5.4 71 2.3 CALM 0 0 0 0 1019.9 1019.8 0.0
19/03:30am 11.8 11.0 6.3 69 2.6 CALM 0 0 0 0 1019.9 1019.8 0.0
19/03:00am 13.2 12.6 7.6 69 2.7 CALM 0 0 0 0 1020.1 1020.0 0.0
19/02:30am 13.7 12.4 7.7 67 2.9 SW 4 6 2 3 1020.3 1020.2 0.0
19/02:00am 14.0 13.5 7.8 66 3.1 CALM 0 4 0 2 1020.5 1020.4 0.0
19/01:30am 14.2 12.4 7.9 66 3.1 SW 7 9 4 5 1020.9 1020.8 0.0
19/01:00am 13.6 11.4 7.8 68 2.9 SSW 9 11 5 6 1021.2 1021.1 0.0
19/12:30am 12.9 10.6 7.4 69 2.7 SW 9 13 5 7 1021.5 1021.4 0.0
19/12:00am 13.5 10.7 7.1 65 3.1 S 11 15 6 8 1021.3 1021.2 0.0
 
Date/Time
CST
Temp
°C
App
Temp
°C
Dew
Point
°C
Rel
Hum
%
Delta-T
°C
Wind Press
QNH
hPa
Press
MSL
hPa
Rain since
9am
mm
Dir  Spd
km/h
Gust
km/h
Spd
kts
Gust
kts
18/11:30pm 14.4 11.2 7.0 61 3.6 S 13 17 7 9 1021.4 1021.3 0.0
18/11:00pm 15.2 11.5 6.5 56 4.2 SSW 15 20 8 11 1021.5 1021.4 0.0
18/10:30pm 13.2 10.6 4.4 55 4.0 SW 7 9 4 5 1021.7 1021.6 0.0
18/10:00pm 14.9 12.6 4.9 51 4.7 W 6 7 3 4 1021.6 1021.5 0.0
18/09:30pm 15.9 13.1 5.2 49 5.1 W 9 11 5 6 1021.9 1021.8 0.0
18/09:00pm 16.6 14.2 5.3 47 5.4 WNW 7 9 4 5 1022.1 1022.0 0.0
18/08:30pm 16.4 13.9 4.8 46 5.5 WNW 7 13 4 7 1022.2 1022.1 0.0
18/08:00pm 16.9 15.8 4.9 45 5.7 CALM 0 0 0 0 1022.2 1022.1 0.0
18/07:30pm 17.0 14.5 5.0 45 5.7 S 7 11 4 6 1022.3 1022.2 0.0
18/07:00pm 16.7 14.2 4.7 45 5.7 WNW 7 9 4 5 1022.3 1022.2 0.0
18/06:30pm 16.4 13.8 4.4 45 5.6 WNW 7 9 4 5 1022.1 1022.0 0.0
18/06:00pm 17.3 15.0 4.6 43 6.0 W 6 7 3 4 1022.0 1021.9 0.0
18/05:30pm 18.6 16.2 5.1 41 6.5 SW 7 9 4 5 1021.9 1021.8 0.0
18/05:00pm 19.5 15.6 5.2 39 7.0 SSW 15 20 8 11 1021.7 1021.6 0.0
18/04:30pm 20.0 16.2 5.6 39 7.1 S 15 24 8 13 1021.6 1021.5 0.0
18/04:00pm 20.1 17.0 5.4 38 7.2 SW 11 17 6 9 1021.7 1021.6 0.0
18/03:30pm 20.3 16.8 5.5 38 7.3 S 13 20 7 11 1022.0 1021.9 0.0
18/03:00pm 20.3 16.7 5.1 37 7.4 WSW 13 22 7 12 1022.1 1022.0 0.0
18/02:30pm 19.9 16.0 5.5 39 7.1 SSW 15 24 8 13 1022.3 1022.2 0.0
18/02:00pm 19.7 16.3 5.7 40 6.9 SW 13 28 7 15 1022.4 1022.3 0.0
18/01:30pm 19.7 16.3 5.7 40 6.9 SSW 13 20 7 11 1022.8 1022.7 0.0
18/01:00pm 19.2 16.1 5.6 41 6.7 SW 11 19 6 10 1023.4 1023.3 0.0
18/12:30pm 18.8 15.2 6.6 45 6.1 SW 15 20 8 11 1023.9 1023.8 0.0
18/12:00pm 18.6 15.5 7.4 48 5.6 SSW 13 17 7 9 1024.3 1024.2 0.0
18/11:30am 17.8 15.2 7.8 52 5.1 SW 11 17 6 9 1024.7 1024.6 0.0
18/11:00am 17.8 14.7 7.2 50 5.3 WSW 13 20 7 11 1025.0 1024.9 0.0
18/10:30am 18.5 15.2 6.4 45 6.0 SSW 13 22 7 12 1025.2 1025.1 0.0
18/10:00am 18.1 15.0 8.9 55 4.8 SSW 15 22 8 12 1025.7 1025.6 0.0
18/09:30am 17.2 14.2 9.1 59 4.2 SSW 15 19 8 10 1025.8 1025.7 0.0
18/09:00am 16.2 13.7 9.6 65 3.4 SSW 13 19 7 10 1026.1 1026.0 0.0
18/08:30am 14.5 12.7 9.3 71 2.6 SW 9 13 5 7 1026.1 1026.0 0.0
18/08:00am 13.7 12.1 8.7 72 2.5 WSW 7 11 4 6 1026.0 1025.9 0.0
18/07:30am 12.6 10.8 8.1 74 2.2 WSW 7 9 4 5 1025.9 1025.8 0.0
18/07:00am 12.0 10.4 7.9 76 2.0 WSW 6 7 3 4 1025.7 1025.6 0.0
18/06:30am 11.8 9.9 7.7 76 2.0 W 7 9 4 5 1025.5 1025.4 0.0
18/06:00am 11.7 9.8 7.4 75 2.1 W 7 9 4 5 1025.5 1025.4 0.0
18/05:30am 11.5 9.2 7.4 76 2.0 W 9 9 5 5 1025.5 1025.4 0.0
18/05:00am 11.5 9.2 7.4 76 2.0 W 9 11 5 6 1025.3 1025.2 0.0
18/04:30am 11.6 9.3 7.5 76 2.0 W 9 11 5 6 1025.4 1025.3 0.0
18/04:00am 11.4 9.1 7.3 76 2.0 W 9 9 5 5 1025.5 1025.4 0.0
18/03:30am 11.4 9.5 7.7 78 1.8 WSW 7 7 4 4 1025.3 1025.2 0.0
18/03:00am 10.9 8.5 7.0 77 1.8 WSW 9 9 5 5 1025.3 1025.2 0.0
18/02:30am 11.4 10.0 7.1 75 2.0 WSW 4 6 2 3 1025.4 1025.3 0.0
18/02:00am 11.3 9.4 7.4 77 1.9 SSW 7 9 4 5 1025.7 1025.6 0.0
18/01:30am 11.6 9.2 7.1 74 2.1 S 9 11 5 6 1025.9 1025.8 0.0
18/01:00am 12.3 9.5 7.0 70 2.5 S 11 15 6 8 1026.0 1025.9 0.0
18/12:30am 12.7 9.5 7.0 68 2.7 S 13 19 7 10 1026.0 1025.9 0.0
18/12:00am 11.6 8.9 5.7 67 2.7 S 9 11 5 6 1026.1 1026.0 0.0
 
Date/Time
CST
Temp
°C
App
Temp
°C
Dew
Point
°C
Rel
Hum
%
Delta-T
°C
Wind Press
QNH
hPa
Press
MSL
hPa
Rain since
9am
mm
Dir  Spd
km/h
Gust
km/h
Spd
kts
Gust
kts
17/11:30pm 11.8 9.1 5.4 65 2.9 S 9 15 5 8 1026.2 1026.1 0.0
17/11:00pm 11.9 9.1 5.1 63 3.1 S 9 11 5 6 1026.4 1026.3 0.0
17/10:30pm 13.0 10.2 5.2 59 3.6 SSW 9 13 5 7 1026.5 1026.4 0.0
17/10:00pm 13.4 10.1 4.3 54 4.2 SSW 11 15 6 8 1026.6 1026.5 0.0
17/09:30pm 13.8 10.4 4.1 52 4.4 SSW 11 15 6 8 1026.7 1026.6 0.0
17/09:00pm 14.3 10.8 3.5 48 4.9 SSW 11 15 6 8 1026.5 1026.4 0.0
17/08:30pm 14.5 11.3 3.0 46 5.1 SSW 9 11 5 6 1026.3 1026.2 0.0
17/08:00pm 15.7 12.1 3.2 43 5.7 SSW 11 13 6 7 1026.2 1026.1 0.0
17/07:30pm 16.3 12.8 3.4 42 5.9 SSW 11 15 6 8 1026.2 1026.1 0.0
17/07:00pm 16.7 13.1 3.1 40 6.2 SSW 11 15 6 8 1026.0 1025.9 0.0
17/06:30pm 17.0 13.8 3.3 40 6.3 SSW 9 11 5 6 1025.8 1025.7 0.0
17/06:00pm 18.0 14.4 2.7 36 7.0 SSW 11 17 6 9 1025.5 1025.4 0.0
17/05:30pm 19.0 14.6 2.8 34 7.5 SSW 15 20 8 11 1025.3 1025.2 0.0
17/05:00pm 19.8 15.0 2.6 32 8.0 SSW 17 22 9 12 1025.1 1025.0 0.0
17/04:30pm 20.2 15.8 2.5 31 8.2 SW 15 20 8 11 1025.1 1025.0 0.0

Other formats

Comma delimited format used in spreadsheet applications
http://www.bom.gov.au/fwo/IDS60801/IDS60801.95687.axf

JavaScript Object Notation format (JSON) in row-major order
http://www.bom.gov.au/fwo/IDS60801/IDS60801.95687.json

Data quality

Most of these data are generated automatically and are frequently updated. Quality checks on data are not normally performed. It is possible for incorrect values to appear. Refer to information at About Latest Weather Observations and please check the disclaimer before using these data.